createdAt,value
2022-08-10T00:01:51.264Z,23.10
2022-08-10T00:04:22.722Z,23.10
2022-08-10T00:06:52.848Z,23.10
2022-08-10T00:09:21.289Z,23.00
2022-08-10T00:11:49.408Z,23.00
2022-08-10T00:14:17.875Z,23.00
2022-08-10T00:16:45.991Z,23.00
2022-08-10T00:19:17.374Z,23.00
2022-08-10T00:21:48.445Z,22.90
2022-08-10T00:24:17.248Z,22.90
2022-08-10T00:28:01.134Z,22.90
2022-08-10T00:29:33.788Z,22.90
2022-08-10T00:32:01.868Z,22.90
2022-08-10T00:34:30.528Z,22.90
2022-08-10T00:37:00.967Z,22.90
2022-08-10T00:39:30.175Z,22.80
2022-08-10T00:42:07.849Z,22.80
2022-08-10T00:44:38.624Z,22.70
2022-08-10T00:47:36.009Z,22.70
2022-08-10T00:49:56.105Z,22.70
2022-08-10T00:52:27.831Z,22.60
2022-08-10T00:54:56.735Z,22.60
2022-08-10T00:57:25.509Z,22.60
2022-08-10T00:59:59.357Z,22.50
2022-08-10T01:02:30.025Z,22.50
2022-08-10T01:05:02.084Z,22.50
2022-08-10T01:07:45.638Z,22.50
2022-08-10T01:10:22.130Z,22.60
2022-08-10T01:12:56.151Z,22.50
2022-08-10T01:15:30.309Z,22.50
2022-08-10T01:18:04.519Z,22.40
2022-08-10T01:20:38.880Z,22.30
2022-08-10T01:23:41.838Z,22.30
2022-08-10T01:26:31.365Z,22.30
2022-08-10T01:29:21.645Z,22.30
2022-08-10T01:31:55.170Z,22.20
2022-08-10T01:34:26.957Z,22.20
2022-08-10T01:37:00.483Z,22.20
2022-08-10T01:39:37.867Z,22.20
2022-08-10T01:42:07.413Z,22.20
2022-08-10T01:44:39.172Z,22.10
2022-08-10T01:47:30.126Z,22.10
2022-08-10T01:50:04.753Z,22.10
2022-08-10T01:52:33.955Z,22.10
2022-08-10T01:55:02.151Z,22.10
2022-08-10T01:57:34.185Z,22.10
2022-08-10T02:00:03.687Z,22.00
2022-08-10T02:02:38.450Z,22.00
2022-08-10T02:05:08.570Z,22.00
2022-08-10T02:07:38.866Z,21.90
2022-08-10T02:10:11.674Z,21.80
2022-08-10T02:12:42.105Z,21.80
2022-08-10T02:15:15.557Z,21.80
2022-08-10T02:17:59.220Z,21.80
2022-08-10T02:20:34.607Z,21.80
2022-08-10T02:23:06.170Z,21.80
2022-08-10T02:25:41.157Z,21.70
2022-08-10T02:28:30.558Z,21.60
2022-08-10T02:31:02.805Z,21.60
2022-08-10T02:33:37.342Z,21.50
2022-08-10T02:36:09.396Z,21.50
2022-08-10T02:38:59.204Z,21.40
2022-08-10T02:45:13.194Z,21.40
2022-08-10T02:45:19.855Z,21.40
2022-08-10T02:47:22.401Z,21.40
2022-08-10T02:50:00.591Z,21.40
2022-08-10T02:52:34.569Z,21.30
2022-08-10T02:55:18.171Z,21.30
2022-08-10T02:58:15.319Z,21.30
2022-08-10T03:00:47.371Z,21.30
2022-08-10T03:03:21.250Z,21.30
2022-08-10T03:05:54.745Z,21.20
2022-08-10T03:08:26.070Z,21.30
2022-08-10T03:10:55.830Z,21.20
2022-08-10T03:13:25.548Z,21.10
2022-08-10T03:15:54.064Z,21.10
2022-08-10T03:18:24.653Z,21.10
2022-08-10T03:20:56.011Z,21.00
2022-08-10T03:23:26.840Z,21.00
2022-08-10T03:25:57.698Z,21.00
2022-08-10T03:28:28.689Z,21.00
2022-08-10T03:30:58.071Z,21.00
2022-08-10T03:33:30.174Z,21.00
2022-08-10T03:36:40.048Z,21.00
2022-08-10T03:38:51.504Z,20.90
2022-08-10T03:41:24.853Z,21.00
2022-08-10T03:43:54.398Z,21.00
2022-08-10T03:46:27.224Z,20.90
2022-08-10T03:48:58.855Z,20.90
2022-08-10T03:51:30.927Z,20.90
2022-08-10T03:54:04.975Z,20.80
2022-08-10T03:56:39.539Z,20.80
2022-08-10T03:59:09.916Z,20.80
2022-08-10T04:02:44.857Z,20.80
2022-08-10T04:04:27.179Z,20.80
2022-08-10T04:06:58.568Z,20.70
2022-08-10T04:09:43.213Z,20.70
2022-08-10T04:12:16.689Z,20.70
2022-08-10T04:14:49.451Z,20.60
2022-08-10T04:18:02.723Z,20.70
2022-08-10T04:20:12.905Z,20.70
2022-08-10T04:22:44.324Z,20.70
2022-08-10T04:25:16.193Z,20.70
2022-08-10T04:27:44.935Z,20.70
2022-08-10T04:30:13.463Z,20.60
2022-08-10T04:32:44.316Z,20.60
2022-08-10T04:35:14.877Z,20.60
2022-08-10T04:37:47.545Z,20.60
2022-08-10T04:40:28.682Z,20.60
2022-08-10T04:43:07.345Z,20.60
2022-08-10T04:45:50.327Z,20.60
2022-08-10T04:48:40.360Z,20.60
2022-08-10T04:51:17.242Z,20.60
2022-08-10T04:54:04.777Z,20.60
2022-08-10T04:56:36.454Z,20.60
2022-08-10T04:59:06.198Z,20.60
2022-08-10T05:02:21.154Z,20.60
2022-08-10T05:04:35.130Z,20.60
2022-08-10T05:07:08.502Z,20.70
2022-08-10T05:10:03.584Z,20.80
2022-08-10T05:12:26.288Z,20.80
2022-08-10T05:14:54.885Z,20.80
2022-08-10T05:17:23.728Z,20.90
2022-08-10T05:20:04.246Z,20.90
2022-08-10T05:22:39.045Z,20.90
2022-08-10T05:25:10.811Z,21.00
2022-08-10T05:27:39.671Z,21.00
2022-08-10T05:30:09.907Z,21.00
2022-08-10T05:32:56.208Z,21.00
2022-08-10T05:35:27.846Z,21.10
2022-08-10T05:38:10.951Z,21.10
2022-08-10T05:40:46.791Z,21.10
2022-08-10T05:43:18.115Z,21.20
2022-08-10T05:46:19.999Z,21.20
2022-08-10T05:48:54.022Z,21.30
2022-08-10T05:51:24.246Z,21.40
2022-08-10T05:54:02.575Z,21.40
2022-08-10T05:56:53.475Z,21.50
2022-08-10T06:00:35.615Z,21.60
2022-08-10T06:02:31.617Z,21.70
2022-08-10T06:05:08.269Z,21.80
2022-08-10T06:07:40.256Z,21.90
2022-08-10T06:10:13.397Z,21.90
2022-08-10T06:12:54.203Z,21.90
2022-08-10T06:15:45.646Z,22.20
2022-08-10T06:18:15.222Z,22.20
2022-08-10T06:20:44.425Z,22.20
2022-08-10T06:23:13.772Z,22.20
2022-08-10T06:26:08.399Z,22.20
2022-08-10T06:28:34.564Z,22.30
2022-08-10T06:31:04.876Z,22.40
2022-08-10T06:33:35.723Z,22.50
2022-08-10T06:36:07.090Z,22.50
2022-08-10T06:38:36.059Z,22.50
2022-08-10T06:41:09.546Z,22.50
2022-08-10T06:43:43.487Z,22.60
2022-08-10T06:46:16.716Z,22.60
2022-08-10T06:48:51.046Z,22.70
2022-08-10T06:51:24.568Z,22.70
2022-08-10T06:54:02.319Z,22.80
2022-08-10T06:56:35.827Z,22.80
2022-08-10T06:59:13.236Z,22.90
2022-08-10T07:01:53.101Z,23.10
2022-08-10T07:04:32.644Z,23.20
2022-08-10T07:07:05.130Z,23.30
2022-08-10T07:09:36.915Z,23.30
2022-08-10T07:12:09.187Z,23.40
2022-08-10T07:14:45.445Z,23.50
2022-08-10T07:17:16.635Z,23.50
2022-08-10T07:19:49.920Z,23.60
2022-08-10T07:23:23.405Z,23.70
2022-08-10T07:25:15.197Z,23.80
2022-08-10T07:27:59.701Z,23.80
2022-08-10T07:30:33.081Z,23.90
2022-08-10T07:33:03.583Z,24.00
2022-08-10T07:35:41.799Z,24.10
2022-08-10T07:38:14.500Z,24.10
2022-08-10T07:40:44.882Z,24.20
2022-08-10T07:43:14.657Z,24.30
2022-08-10T07:45:44.169Z,24.30
2022-08-10T07:48:17.053Z,24.30
2022-08-10T07:50:47.045Z,24.30
2022-08-10T07:53:21.927Z,24.40
2022-08-10T07:56:01.798Z,24.40
2022-08-10T07:58:52.014Z,24.40
2022-08-10T08:01:25.164Z,24.40
2022-08-10T08:04:05.958Z,24.40
2022-08-10T08:06:42.589Z,24.50
2022-08-10T08:09:11.877Z,24.50
2022-08-10T08:11:43.565Z,24.60
2022-08-10T08:14:12.852Z,24.70
2022-08-10T08:16:46.586Z,24.70
2022-08-10T08:19:37.723Z,24.80
2022-08-10T08:24:06.554Z,24.80
2022-08-10T08:24:56.015Z,24.80
2022-08-10T08:27:25.490Z,24.90
2022-08-10T08:29:54.216Z,24.90
2022-08-10T08:32:25.689Z,25.00
2022-08-10T08:34:57.426Z,25.00
2022-08-10T08:38:34.468Z,25.00
2022-08-10T08:40:22.150Z,25.00
2022-08-10T08:43:23.138Z,25.10
2022-08-10T08:46:14.172Z,25.20
2022-08-10T08:49:08.496Z,25.30
2022-08-10T08:52:07.757Z,25.40
2022-08-10T08:54:46.502Z,25.40
2022-08-10T08:57:23.728Z,25.40
2022-08-10T09:00:17.303Z,25.50
2022-08-10T09:03:03.889Z,25.60
2022-08-10T09:05:58.945Z,25.50
2022-08-10T09:09:11.743Z,25.50
2022-08-10T09:12:00.468Z,25.70
2022-08-10T09:14:36.835Z,25.80
2022-08-10T09:17:17.328Z,25.80
2022-08-10T09:19:52.843Z,25.90
2022-08-10T09:22:32.307Z,26.00
2022-08-10T09:25:10.437Z,26.00
2022-08-10T09:27:45.612Z,26.00
2022-08-10T09:30:29.165Z,26.10
2022-08-10T09:36:21.927Z,26.30
2022-08-10T09:36:26.168Z,26.20
2022-08-10T09:39:09.018Z,26.40
2022-08-10T09:41:46.484Z,26.40
2022-08-10T09:44:27.371Z,26.40
2022-08-10T09:47:58.602Z,26.40
2022-08-10T09:50:25.779Z,26.50
2022-08-10T09:53:06.883Z,26.60
2022-08-10T09:56:17.512Z,26.80
2022-08-10T09:58:44.059Z,26.90
2022-08-10T10:01:58.271Z,26.90
2022-08-10T10:04:16.685Z,26.90
2022-08-10T10:06:50.371Z,27.00
2022-08-10T10:09:26.840Z,27.00
2022-08-10T10:12:10.042Z,27.10
2022-08-10T10:15:09.562Z,27.10
2022-08-10T10:17:50.921Z,27.20
2022-08-10T10:20:27.030Z,27.20
2022-08-10T10:23:03.906Z,27.20
2022-08-10T10:25:50.316Z,27.20
2022-08-10T10:28:59.763Z,27.20
2022-08-10T10:31:29.421Z,27.20
2022-08-10T10:34:10.939Z,27.30
2022-08-10T10:36:41.154Z,27.40
2022-08-10T10:39:11.178Z,27.50
2022-08-10T10:42:03.389Z,27.40
2022-08-10T10:44:47.649Z,27.40
2022-08-10T10:47:38.806Z,27.60
2022-08-10T10:50:13.621Z,27.80
2022-08-10T10:52:51.830Z,27.90
2022-08-10T10:55:26.583Z,28.10
2022-08-10T10:58:01.349Z,28.00
2022-08-10T11:00:38.216Z,28.00
2022-08-10T11:03:35.248Z,28.00
2022-08-10T11:06:16.624Z,28.00
2022-08-10T11:08:52.141Z,28.00
2022-08-10T11:12:00.687Z,28.00
2022-08-10T11:14:29.368Z,27.90
2022-08-10T11:17:05.803Z,28.00
2022-08-10T11:20:02.226Z,28.10
2022-08-10T11:22:36.800Z,28.20
2022-08-10T11:25:12.831Z,28.20
2022-08-10T11:27:49.777Z,28.10
2022-08-10T11:30:21.843Z,28.10
2022-08-10T11:33:07.552Z,28.10
2022-08-10T11:35:44.994Z,28.00
2022-08-10T11:38:32.667Z,28.00
2022-08-10T11:42:06.466Z,27.90
2022-08-10T11:44:08.612Z,28.00
2022-08-10T11:46:43.716Z,28.20
2022-08-10T11:49:17.831Z,28.50
2022-08-10T11:51:49.440Z,28.60
2022-08-10T11:54:30.436Z,28.70
2022-08-10T11:57:02.814Z,28.90
2022-08-10T11:59:58.871Z,28.90
2022-08-10T12:02:32.690Z,28.90
2022-08-10T12:05:07.947Z,28.70
2022-08-10T12:10:02.210Z,28.60
2022-08-10T12:10:30.693Z,28.60
2022-08-10T12:13:05.796Z,28.60
2022-08-10T12:15:38.958Z,28.80
2022-08-10T12:18:15.168Z,29.00
2022-08-10T12:20:50.889Z,29.00
2022-08-10T12:23:25.209Z,29.00
2022-08-10T12:26:07.493Z,29.00
2022-08-10T12:28:49.812Z,29.00
2022-08-10T12:31:26.552Z,29.10
2022-08-10T12:34:07.193Z,29.00
2022-08-10T12:36:42.092Z,29.20
2022-08-10T12:39:16.839Z,29.30
2022-08-10T12:41:53.982Z,29.50
2022-08-10T12:44:41.223Z,29.60
2022-08-10T12:47:19.487Z,29.70
2022-08-10T12:50:26.619Z,29.90
2022-08-10T12:52:52.741Z,30.10
2022-08-10T12:55:21.525Z,30.30
2022-08-10T12:57:53.693Z,30.40
2022-08-10T13:00:30.604Z,30.50
2022-08-10T13:03:01.601Z,30.30
2022-08-10T13:06:02.008Z,30.50
2022-08-10T13:08:42.025Z,30.60
2022-08-10T13:11:19.224Z,30.70
2022-08-10T13:14:09.783Z,30.80
2022-08-10T13:16:39.049Z,30.80
2022-08-10T13:19:08.597Z,30.90
2022-08-10T13:21:39.624Z,31.10
2022-08-10T13:24:13.190Z,31.30
2022-08-10T13:27:09.128Z,31.50
2022-08-10T13:29:37.668Z,31.60
2022-08-10T13:32:11.215Z,31.80
2022-08-10T13:34:45.586Z,32.00
2022-08-10T13:37:17.963Z,32.20
2022-08-10T13:39:59.530Z,32.30
2022-08-10T13:42:32.777Z,32.20
2022-08-10T13:45:08.097Z,32.30
2022-08-10T13:47:48.851Z,32.30
2022-08-10T13:50:34.683Z,32.50
2022-08-10T13:53:14.473Z,32.60
2022-08-10T13:55:55.203Z,32.60
2022-08-10T13:58:29.857Z,32.80
2022-08-10T14:01:00.580Z,33.10
2022-08-10T14:03:29.664Z,33.30
2022-08-10T14:05:59.653Z,33.60
2022-08-10T14:08:32.156Z,33.80
2022-08-10T14:11:11.003Z,33.90
2022-08-10T14:13:46.301Z,33.90
2022-08-10T14:16:16.564Z,33.90
2022-08-10T14:18:46.058Z,33.90
2022-08-10T14:21:14.904Z,33.80
2022-08-10T14:23:52.849Z,33.80
2022-08-10T14:26:26.242Z,34.00
2022-08-10T14:28:58.416Z,34.20
2022-08-10T14:31:33.509Z,34.40
2022-08-10T14:34:04.608Z,34.40
2022-08-10T14:36:42.098Z,34.40
2022-08-10T14:39:14.701Z,34.40
2022-08-10T14:42:04.553Z,34.40
2022-08-10T14:44:46.240Z,34.40
2022-08-10T14:47:54.056Z,34.30
2022-08-10T14:50:07.412Z,34.40
2022-08-10T14:52:44.425Z,34.50
2022-08-10T14:55:19.710Z,34.40
2022-08-10T14:58:20.294Z,34.60
2022-08-10T15:00:43.602Z,34.90
2022-08-10T15:03:59.160Z,35.30
2022-08-10T15:06:16.864Z,35.70
2022-08-10T15:08:47.479Z,36.00
2022-08-10T15:12:14.305Z,36.00
2022-08-10T15:14:34.187Z,36.40
2022-08-10T15:16:58.611Z,37.30
2022-08-10T15:20:00.985Z,38.30
2022-08-10T15:22:36.320Z,39.30
2022-08-10T15:25:06.785Z,40.00
2022-08-10T15:27:53.468Z,40.10
2022-08-10T15:30:29.846Z,39.90
2022-08-10T15:33:57.063Z,39.40
2022-08-10T15:36:33.074Z,39.10
2022-08-10T15:39:04.773Z,38.60
2022-08-10T15:41:57.731Z,38.70
2022-08-10T15:44:37.801Z,38.60
2022-08-10T15:47:15.213Z,37.80
2022-08-10T15:49:51.717Z,36.70
2022-08-10T15:52:39.797Z,35.80
2022-08-10T15:55:43.103Z,35.10
2022-08-10T15:58:10.501Z,34.40
2022-08-10T16:00:45.116Z,33.80
2022-08-10T16:03:23.566Z,33.30
2022-08-10T16:06:01.950Z,33.10
2022-08-10T16:08:56.651Z,32.80
2022-08-10T16:11:38.270Z,32.60
2022-08-10T16:14:28.127Z,32.40
2022-08-10T16:16:57.609Z,32.30
2022-08-10T16:19:29.127Z,32.20
2022-08-10T16:22:34.468Z,32.10
2022-08-10T16:24:53.490Z,32.00
2022-08-10T16:27:23.579Z,32.00
2022-08-10T16:29:58.516Z,32.00
2022-08-10T16:32:29.985Z,31.90
2022-08-10T16:35:01.916Z,31.80
2022-08-10T16:37:57.755Z,31.70
2022-08-10T16:40:28.801Z,31.60
2022-08-10T16:42:58.559Z,31.60
2022-08-10T16:45:32.416Z,31.50
2022-08-10T16:48:01.494Z,31.30
2022-08-10T16:50:34.649Z,31.30
2022-08-10T16:53:06.265Z,31.20
2022-08-10T16:55:48.375Z,31.10
2022-08-10T16:58:21.920Z,31.00
2022-08-10T17:00:52.071Z,31.00
2022-08-10T17:04:06.406Z,31.00
2022-08-10T17:06:20.567Z,30.90
2022-08-10T17:08:52.509Z,30.80
2022-08-10T17:11:23.659Z,30.70
2022-08-10T17:13:55.733Z,30.70
2022-08-10T17:16:25.583Z,30.70
2022-08-10T17:18:55.806Z,30.70
2022-08-10T17:21:29.552Z,30.60
2022-08-10T17:24:03.217Z,30.60
2022-08-10T17:26:35.617Z,30.60
2022-08-10T17:29:53.643Z,30.50
2022-08-10T17:32:00.867Z,30.50
2022-08-10T17:34:34.297Z,30.40
2022-08-10T17:37:06.662Z,30.40
2022-08-10T17:39:42.121Z,30.30
2022-08-10T17:42:11.817Z,30.30
2022-08-10T17:44:41.717Z,30.20
2022-08-10T17:47:12.058Z,30.10
2022-08-10T17:49:43.240Z,30.10
2022-08-10T17:52:20.954Z,30.00
2022-08-10T17:54:55.708Z,30.00
2022-08-10T17:57:24.892Z,30.00
2022-08-10T17:59:55.238Z,29.90
2022-08-10T18:02:26.874Z,29.80
2022-08-10T18:04:58.723Z,29.80
2022-08-10T18:07:35.100Z,29.70
2022-08-10T18:10:05.349Z,29.70
2022-08-10T18:12:41.459Z,29.70
2022-08-10T18:15:13.724Z,29.60
2022-08-10T18:17:45.809Z,29.50
2022-08-10T18:20:15.308Z,29.40
2022-08-10T18:22:51.295Z,29.40
2022-08-10T18:25:21.716Z,29.30
2022-08-10T18:28:04.056Z,29.30
2022-08-10T18:30:37.007Z,29.20
2022-08-10T18:33:10.945Z,29.20
2022-08-10T18:35:40.554Z,29.10
2022-08-10T18:38:13.004Z,29.00
2022-08-10T18:40:45.473Z,29.00
2022-08-10T18:44:07.177Z,29.00
2022-08-10T18:46:11.408Z,28.90
2022-08-10T18:48:45.334Z,28.90
2022-08-10T18:51:14.354Z,28.80
2022-08-10T18:53:54.495Z,28.80
2022-08-10T18:56:33.141Z,28.70
2022-08-10T18:59:12.412Z,28.60
2022-08-10T19:01:54.916Z,28.60
2022-08-10T19:04:37.021Z,28.60
2022-08-10T19:07:18.125Z,28.50
2022-08-10T19:10:04.764Z,28.50
2022-08-10T19:12:42.462Z,28.40
2022-08-10T19:15:18.880Z,28.30
2022-08-10T19:18:03.741Z,28.30
2022-08-10T19:20:41.685Z,28.20
2022-08-10T19:23:18.646Z,28.20
2022-08-10T19:26:41.181Z,28.20
2022-08-10T19:28:55.207Z,28.10
2022-08-10T19:31:44.677Z,28.10
2022-08-10T19:34:24.400Z,28.00
2022-08-10T19:37:04.786Z,27.90
2022-08-10T19:39:51.038Z,27.90
2022-08-10T19:42:31.218Z,27.80
2022-08-10T19:45:07.313Z,27.80
2022-08-10T19:47:46.070Z,27.80
2022-08-10T19:50:20.816Z,27.70
2022-08-10T19:52:55.529Z,27.70
2022-08-10T19:55:34.414Z,27.60
2022-08-10T19:58:08.569Z,27.60
2022-08-10T20:00:41.940Z,27.50
2022-08-10T20:03:17.929Z,27.50
2022-08-10T20:06:13.064Z,27.60
2022-08-10T20:08:52.727Z,27.50
2022-08-10T20:11:44.480Z,27.50
2022-08-10T20:14:22.143Z,27.40
2022-08-10T20:16:55.870Z,27.40
2022-08-10T20:19:52.736Z,27.40
2022-08-10T20:22:29.011Z,27.40
2022-08-10T20:25:03.286Z,27.30
2022-08-10T20:28:00.397Z,27.30
2022-08-10T20:30:40.901Z,27.30
2022-08-10T20:33:11.182Z,27.20
2022-08-10T20:35:50.252Z,27.20
2022-08-10T20:38:27.228Z,27.20
2022-08-10T20:41:07.113Z,27.20
2022-08-10T20:43:42.780Z,27.20
2022-08-10T20:46:19.287Z,27.10
2022-08-10T20:48:51.517Z,27.10
2022-08-10T20:51:23.966Z,27.10
2022-08-10T20:54:13.416Z,27.10
2022-08-10T20:56:48.338Z,27.10
2022-08-10T21:00:04.717Z,26.90
2022-08-10T21:02:50.895Z,26.80
2022-08-10T21:05:26.317Z,26.60
2022-08-10T21:08:02.418Z,26.60
2022-08-10T21:10:46.556Z,26.40
2022-08-10T21:13:25.662Z,26.40
2022-08-10T21:16:04.544Z,26.30
2022-08-10T21:18:56.997Z,26.20
2022-08-10T21:21:43.928Z,26.10
2022-08-10T21:24:22.106Z,26.00
2022-08-10T21:27:08.278Z,26.00
2022-08-10T21:29:55.954Z,25.90
2022-08-10T21:32:39.171Z,25.80
2022-08-10T21:38:16.749Z,25.70
2022-08-10T21:41:57.631Z,25.60
2022-08-10T21:44:52.532Z,25.60
2022-08-10T21:48:07.045Z,25.60
2022-08-10T21:51:16.351Z,25.60
2022-08-10T21:54:18.657Z,25.60
2022-08-10T21:57:12.569Z,25.60
2022-08-10T22:00:05.549Z,25.50
2022-08-10T22:02:57.091Z,25.50
2022-08-10T22:05:46.863Z,25.50
2022-08-10T22:08:38.314Z,25.40
2022-08-10T22:11:27.939Z,25.30
2022-08-10T22:14:15.350Z,25.30
2022-08-10T22:17:04.783Z,25.30
2022-08-10T22:19:54.032Z,25.20
2022-08-10T22:22:56.088Z,25.20
2022-08-10T22:25:55.775Z,25.20
2022-08-10T22:28:45.690Z,25.20
2022-08-10T22:31:24.933Z,25.80
2022-08-10T22:31:51.513Z,25.10
2022-08-10T22:34:55.700Z,25.10
2022-08-10T22:37:53.176Z,25.10
2022-08-10T22:40:42.181Z,25.10
2022-08-10T22:43:45.228Z,25.10
2022-08-10T22:46:37.305Z,25.10
2022-08-10T22:49:04.997Z,25.00
2022-08-10T22:51:54.191Z,25.00
2022-08-10T22:54:46.584Z,25.00
2022-08-10T22:57:34.300Z,25.00
2022-08-10T23:00:15.042Z,24.90
2022-08-10T23:02:51.304Z,24.80
2022-08-10T23:05:25.586Z,24.70
2022-08-10T23:08:06.146Z,24.70
2022-08-10T23:10:39.851Z,24.60
2022-08-10T23:13:11.491Z,24.60
2022-08-10T23:16:13.806Z,24.60
2022-08-10T23:19:03.846Z,24.60
2022-08-10T23:21:47.739Z,24.50
2022-08-10T23:24:29.866Z,24.40
2022-08-10T23:26:59.999Z,24.30
2022-08-10T23:30:03.992Z,24.20
2022-08-10T23:32:37.244Z,24.20
2022-08-10T23:36:04.421Z,24.20
2022-08-10T23:38:00.652Z,24.20
2022-08-10T23:40:29.063Z,24.20
2022-08-10T23:42:58.722Z,24.10
2022-08-10T23:45:28.874Z,24.00
2022-08-10T23:48:22.454Z,23.90
2022-08-10T23:50:59.557Z,23.80
2022-08-10T23:53:34.243Z,23.90
2022-08-10T23:56:06.757Z,23.90
2022-08-10T23:58:38.715Z,23.80
